Etusivu
METAR-TAF:

METAR-TAF

Lentoasemat :

Shanghai Pudongin kansainvälinen lentoasema

Shanghai-Pudong, Kiina

Leveyspiiri: 31-07N, Pituuspiiri: 121-46E, korkeus merenpinnasta: 4 m

Tämänhetkinen sää

Tämä raportti tehtiin 23 minuuttia sitten, kello 13.00 UTC
Tuuli 6 kn luoteesta
Lämpötila 17°C
Kosteus 88%
Ilmanpaine 1017 hPa
Näkyvyys: 6000 m
Hajanaisia pilviä 1500 ft:n korkeudessa
heikkoa sadetta

METAR: ZSPD 211300Z 31003MPS 6000 -RA SCT015 17/15 Q1017 NOSIG

Aika: 21:23 (13:23 UTC)

Sääennuste

Tämä raportti tehtiin 4 tuntia ja 2 minuuttia sitten, kello 09.21 UTC
Ennuste voimassa 21. päivästä klo 12 UTC - 22. päivään klo 12 UTC
Tuuli 8 kn pohjoisen/luoteesta
Näkyvyys: 6000 m
Hajonneita pilviä 1500 ft:n korkeudessa
Tulossa
22. päivästä klo 03 UTC - 22. päivään klo 05 UTC
Tuuli 16 kn pohjoisesta puuskistuen 25 kn:hen

TAF: ZSPD 210921Z 2112/2212 34004MPS 6000 BKN015 TX21/2206Z TN15/2121Z BECMG 2203/2205 36008G13MPS

Säähavainnot ja -ennusteet yli 4000 lentoasemalta (METAR- ja TAF-raportit).

Käytössä olevat sääasemat on merkitty karttaan keltaisilla ja punaisilla pisteillä.

Aseta hiiri pisteen päälle nähdäksesi sääaseman nimen.

Klikkaa sitten nähdäksesi säähavainnot ja -ennusteet.

Kartan vaihtaminen: klikkaa mustalla rastilla varustettuja vihreitä pisteitä, niin voit zoomata sisään; viivalla varustettua vihreää pistettä, niin voit zoomata ulos tai vihreitä nuolia, niin pääset viereisille kartoille.


METAR-TAF: